Time;durP1;ratioP1;P1;durP2;ratioP2;P2;SDS_P1;SDS_P2;PMS_P1;PMS_P2;Temp;Humidity;BMP_temperature;BMP_pressure;BME280_temperature;BME280_humidity;BME280_pressure;Samples;Min_cycle;Max_cycle;Signal;HPM_P1;HPM_P2
2024/04/07 00:00:23;;;;;;;3.65;1.63;;;;;;;14.91;100.00;100965.31;4975852;28;20514;-80
2024/04/07 00:02:52;;;;;;;9.23;2.03;;;;;;;14.79;100.00;100962.97;4975050;28;20197;-81
2024/04/07 00:05:18;;;;;;;6.38;2.08;;;;;;;14.74;100.00;100956.41;4976030;28;20039;-80
2024/04/07 00:07:43;;;;;;;9.13;2.20;;;;;;;14.71;100.00;100962.94;4975626;28;20049;-81
2024/04/07 00:10:09;;;;;;;5.38;2.45;;;;;;;14.67;100.00;100966.94;4975850;28;20471;-80
2024/04/07 00:12:35;;;;;;;6.50;1.95;;;;;;;14.61;100.00;100994.38;4975127;28;20031;-81
2024/04/07 00:15:01;;;;;;;7.18;1.70;;;;;;;14.56;100.00;100996.66;4975749;28;20379;-81
2024/04/07 00:17:27;;;;;;;11.32;2.13;;;;;;;14.53;100.00;101003.19;4974977;28;20035;-79
2024/04/07 00:19:52;;;;;;;10.43;2.65;;;;;;;14.42;100.00;101023.03;4974972;28;20030;-79
2024/04/07 00:22:18;;;;;;;12.90;2.58;;;;;;;14.24;100.00;101035.63;4974646;28;20035;-76
2024/04/07 00:24:44;;;;;;;7.45;2.22;;;;;;;14.03;100.00;101042.22;4974564;28;20035;-78
2024/04/07 00:27:09;;;;;;;7.45;1.90;;;;;;;13.82;100.00;101033.69;4974865;28;20464;-77
2024/04/07 00:29:35;;;;;;;10.45;2.80;;;;;;;13.58;100.00;101033.34;4974555;28;20035;-77
2024/04/07 00:32:00;;;;;;;8.10;2.33;;;;;;;13.41;100.00;101023.50;4974590;28;20046;-78
2024/04/07 00:34:26;;;;;;;8.05;2.13;;;;;;;13.32;100.00;101040.44;4974406;28;20102;-78
2024/04/07 00:36:51;;;;;;;7.82;2.10;;;;;;;13.27;100.00;101042.69;4974821;28;20455;-79
2024/04/07 00:39:16;;;;;;;5.68;2.15;;;;;;;13.24;100.00;101051.84;4974252;28;20034;-76
2024/04/07 00:41:42;;;;;;;9.27;2.53;;;;;;;13.18;100.00;101063.16;4974519;28;20033;-76
2024/04/07 00:44:08;;;;;;;13.85;2.45;;;;;;;13.10;100.00;101066.56;4974395;28;20090;-78
2024/04/07 00:46:33;;;;;;;9.85;2.67;;;;;;;13.02;100.00;101058.50;4977303;28;20390;-76
2024/04/07 00:48:59;;;;;;;14.60;2.70;;;;;;;12.91;100.00;101067.53;4978248;28;20420;-76
2024/04/07 00:51:24;;;;;;;14.95;2.72;;;;;;;12.80;100.00;101063.22;4977935;28;20031;-77
2024/04/07 00:53:50;;;;;;;10.68;2.35;;;;;;;12.71;100.00;101061.44;4978396;28;20410;-81
2024/04/07 00:56:16;;;;;;;10.65;2.95;;;;;;;12.65;100.00;101064.72;4978404;28;20142;-78
2024/04/07 00:58:42;;;;;;;9.50;2.42;;;;;;;12.60;100.00;101072.31;4978096;28;20118;-77
2024/04/07 01:01:07;;;;;;;9.85;2.40;;;;;;;12.59;100.00;101062.63;4977622;28;20039;-76
2024/04/07 01:03:32;;;;;;;9.55;2.03;;;;;;;12.54;100.00;101060.41;4976784;28;20454;-76
2024/04/07 01:05:58;;;;;;;10.48;2.42;;;;;;;12.50;100.00;101069.69;4977540;28;20053;-76
2024/04/07 01:08:23;;;;;;;10.57;2.70;;;;;;;12.44;100.00;101057.75;4976565;28;20399;-75
2024/04/07 01:10:50;;;;;;;9.13;2.58;;;;;;;12.40;100.00;101058.19;4977846;28;20117;-75
2024/04/07 01:13:15;;;;;;;6.50;2.20;;;;;;;12.31;100.00;101055.41;4977384;28;20585;-75
2024/04/07 01:15:41;;;;;;;12.82;2.35;;;;;;;12.27;100.00;101050.50;4977644;28;20023;-75
2024/04/07 01:18:06;;;;;;;7.25;2.22;;;;;;;12.25;100.00;101047.97;4977391;28;20141;-75
2024/04/07 01:20:33;;;;;;;13.77;2.53;;;;;;;12.20;100.00;101049.44;4977666;28;20030;-75
2024/04/07 01:23:00;;;;;;;7.15;2.08;;;;;;;12.15;100.00;101045.34;4978165;28;20141;-75
2024/04/07 01:25:25;;;;;;;8.02;2.10;;;;;;;12.14;100.00;101048.19;4978083;28;20042;-75
2024/04/07 01:27:53;;;;;;;8.45;1.95;;;;;;;12.12;100.00;101042.13;4977597;28;20483;-75
2024/04/07 01:30:19;;;;;;;12.18;2.38;;;;;;;12.11;100.00;101040.47;4976124;28;20446;-75
2024/04/07 01:32:44;;;;;;;8.40;2.20;;;;;;;12.08;100.00;101038.09;4977064;28;20106;-74
2024/04/07 01:35:10;;;;;;;6.28;2.17;;;;;;;12.08;100.00;101060.25;4977208;28;20062;-75
2024/04/07 01:37:35;;;;;;;10.48;2.28;;;;;;;12.05;100.00;101054.38;4977590;28;20113;-75
2024/04/07 01:40:03;;;;;;;10.88;2.78;;;;;;;12.00;100.00;101065.44;4977198;28;20041;-74
2024/04/07 01:42:29;;;;;;;8.05;2.38;;;;;;;11.99;100.00;101069.94;4975773;28;20069;-75
2024/04/07 01:44:55;;;;;;;6.97;1.92;;;;;;;11.96;100.00;101067.56;4977119;28;20062;-77
2024/04/07 01:47:20;;;;;;;6.97;1.90;;;;;;;11.93;100.00;101059.03;4976983;28;20065;-75
2024/04/07 01:49:51;;;;;;;10.40;2.00;;;;;;;11.92;100.00;101051.97;4975549;28;20118;-75
2024/04/07 01:52:17;;;;;;;6.03;1.70;;;;;;;11.91;100.00;101052.94;4977941;28;20027;-76
2024/04/07 01:54:45;;;;;;;10.90;1.92;;;;;;;11.89;100.00;101042.41;4976720;28;20039;-76
2024/04/07 01:57:11;;;;;;;7.75;1.67;;;;;;;11.85;100.00;101050.84;4975369;28;20459;-76
2024/04/07 01:59:37;;;;;;;3.50;1.42;;;;;;;11.79;100.00;101039.78;4976982;28;20041;-76
2024/04/07 02:02:02;;;;;;;6.68;1.52;;;;;;;11.80;100.00;101032.63;4977096;28;20025;-76
2024/04/07 02:04:28;;;;;;;4.28;1.38;;;;;;;11.84;100.00;101031.34;4976921;28;20412;-75
2024/04/07 02:06:54;;;;;;;6.63;2.25;;;;;;;11.87;100.00;101025.75;4976906;28;20387;-76
2024/04/07 02:09:20;;;;;;;11.68;1.95;;;;;;;11.88;100.00;101010.56;4976849;28;20026;-75
2024/04/07 02:11:48;;;;;;;9.05;1.77;;;;;;;11.84;100.00;101012.69;4976800;28;20423;-76
2024/04/07 02:14:13;;;;;;;5.95;1.40;;;;;;;11.86;100.00;101010.72;4976683;28;20023;-76
2024/04/07 02:16:39;;;;;;;7.63;1.85;;;;;;;11.86;100.00;101020.56;4976691;28;20050;-75
2024/04/07 02:19:04;;;;;;;4.32;1.40;;;;;;;11.91;100.00;100992.47;4991646;28;20371;-75
2024/04/07 02:21:29;;;;;;;3.05;1.23;;;;;;;11.95;100.00;100993.88;4976820;28;20348;-76
2024/04/07 02:23:55;;;;;;;7.40;1.55;;;;;;;11.98;100.00;100996.25;4976575;28;20367;-76
2024/04/07 02:26:21;;;;;;;5.13;1.63;;;;;;;12.06;100.00;100992.03;4977292;28;20035;-76
2024/04/07 02:28:47;;;;;;;5.95;1.30;;;;;;;12.14;100.00;100973.50;4976569;28;20027;-76
2024/04/07 02:31:12;;;;;;;6.60;1.38;;;;;;;12.14;100.00;100973.50;4976482;28;20037;-78
2024/04/07 02:33:38;;;;;;;3.17;1.25;;;;;;;12.17;100.00;100982.03;4976442;28;20034;-77
2024/04/07 02:36:06;;;;;;;3.60;1.20;;;;;;;12.19;100.00;100978.38;4976203;28;20070;-81
2024/04/07 02:38:31;;;;;;;6.20;1.50;;;;;;;12.28;100.00;100999.66;4976096;28;20035;-77
2024/04/07 02:40:57;;;;;;;4.70;1.10;;;;;;;12.37;100.00;100986.44;4976186;28;20046;-76
2024/04/07 02:43:23;;;;;;;4.78;1.40;;;;;;;12.43;100.00;100991.19;4974827;28;20035;-77
2024/04/07 02:48:32;;;;;;;3.40;1.02;;;;;;;12.48;100.00;101011.13;4975860;28;20042;-79
2024/04/07 02:50:57;;;;;;;3.80;1.00;;;;;;;12.50;100.00;101041.16;4976111;28;20031;-78
2024/04/07 02:53:23;;;;;;;2.70;1.02;;;;;;;12.58;100.00;101034.25;4976001;28;20034;-79
2024/04/07 02:55:49;;;;;;;3.22;1.20;;;;;;;12.64;100.00;101033.66;4976009;28;20423;-77
2024/04/07 02:58:14;;;;;;;6.88;1.50;;;;;;;12.65;100.00;101024.66;4976168;28;20030;-78
2024/04/07 03:00:39;;;;;;;2.53;1.00;;;;;;;12.69;100.00;101050.09;4975865;28;20035;-77
2024/04/07 03:03:05;;;;;;;1.83;1.10;;;;;;;12.70;100.00;101051.75;4974629;28;20031;-78
2024/04/07 03:05:30;;;;;;;3.67;1.02;;;;;;;12.73;100.00;101029.25;4975583;28;20081;-78
2024/04/07 03:07:55;;;;;;;4.32;1.55;;;;;;;12.73;100.00;101019.41;4975443;28;20539;-77
2024/04/07 03:10:21;;;;;;;3.90;1.20;;;;;;;12.73;100.00;101008.72;4975718;28;20483;-78
2024/04/07 03:12:46;;;;;;;2.83;0.80;;;;;;;12.70;100.00;101012.56;4975795;28;20375;-76
2024/04/07 03:15:11;;;;;;;5.28;1.35;;;;;;;12.73;100.00;101019.41;4975203;28;20093;-78
2024/04/07 03:17:37;;;;;;;2.72;0.98;;;;;;;12.72;100.00;101032.91;4975226;28;20035;-78
2024/04/07 03:20:03;;;;;;;3.42;1.17;;;;;;;12.74;100.00;101036.28;4975330;28;20070;-78
2024/04/07 03:22:30;;;;;;;2.65;1.25;;;;;;;12.70;100.00;101033.91;4975368;28;20432;-78
2024/04/07 03:24:55;;;;;;;2.97;1.27;;;;;;;12.72;100.00;101039.13;4975808;28;20035;-78
2024/04/07 03:27:20;;;;;;;3.45;1.15;;;;;;;12.75;100.00;101060.16;4975841;28;20105;-78
2024/04/07 03:29:46;;;;;;;2.30;1.00;;;;;;;12.75;100.00;101065.50;4975756;28;20026;-78
2024/04/07 03:32:12;;;;;;;6.43;1.33;;;;;;;12.72;100.00;101068.47;4975273;28;20035;-81
2024/04/07 03:34:37;;;;;;;5.32;1.55;;;;;;;12.74;100.00;101066.50;4975300;28;20058;-79
2024/04/07 03:37:06;;;;;;;3.25;1.20;;;;;;;12.73;100.00;101059.47;4975291;28;20449;-79
2024/04/07 03:39:32;;;;;;;2.10;1.27;;;;;;;12.73;100.00;101058.63;4974443;28;20390;-79
2024/04/07 03:41:57;;;;;;;4.60;1.20;;;;;;;12.70;100.00;101067.78;4975224;28;20027;-80
2024/04/07 03:44:23;;;;;;;2.20;0.70;;;;;;;12.70;100.00;101062.44;4974955;28;20037;-80
2024/04/07 03:46:48;;;;;;;2.42;1.13;;;;;;;12.74;100.00;101063.00;4974899;28;20034;-75
2024/04/07 03:49:14;;;;;;;1.95;1.00;;;;;;;12.71;100.00;101064.13;4975096;28;20078;-82
2024/04/07 03:51:39;;;;;;;9.07;1.27;;;;;;;12.73;100.00;101072.81;4975519;28;20118;-79
2024/04/07 03:54:05;;;;;;;2.85;1.10;;;;;;;12.72;100.00;101078.28;4975366;28;20035;-79
2024/04/07 03:56:31;;;;;;;6.50;1.35;;;;;;;12.65;100.00;101097.56;4975399;28;20059;-80
2024/04/07 03:58:57;;;;;;;6.25;1.17;;;;;;;12.58;100.00;101091.13;4974486;28;20034;-80
2024/04/07 04:01:22;;;;;;;4.30;1.15;;;;;;;12.60;100.00;101102.53;4974900;28;20042;-79
2024/04/07 04:03:47;;;;;;;3.28;1.10;;;;;;;12.63;100.00;101094.22;4974908;28;20058;-80
2024/04/07 04:06:13;;;;;;;3.50;0.95;;;;;;;12.69;100.00;101111.50;4974858;28;20055;-81
2024/04/07 04:08:38;;;;;;;4.63;1.05;;;;;;;12.75;100.00;101110.03;4975160;28;20082;-80
2024/04/07 04:11:08;;;;;;;3.75;1.15;;;;;;;12.80;100.00;101110.47;4974955;28;20035;-78
2024/04/07 04:13:37;;;;;;;2.08;0.93;;;;;;;12.84;100.00;101122.53;4974789;28;20089;-77
2024/04/07 04:16:03;;;;;;;4.28;1.23;;;;;;;12.84;100.00;101117.19;4974537;28;20057;-77
2024/04/07 04:18:29;;;;;;;1.95;1.00;;;;;;;12.79;100.00;101109.59;4975197;28;20038;-77
2024/04/07 04:20:54;;;;;;;3.42;1.13;;;;;;;12.71;100.00;101117.50;4973969;28;20089;-78
2024/04/07 04:23:20;;;;;;;4.03;1.17;;;;;;;12.66;100.00;101117.13;4974587;28;20050;-79
2024/04/07 04:25:56;;;;;;;3.45;1.20;;;;;;;12.63;100.00;101117.38;4974541;28;20062;-79
2024/04/07 04:28:21;;;;;;;2.58;1.05;;;;;;;12.60;100.00;101126.53;4974586;28;20070;-78
2024/04/07 04:30:54;;;;;;;3.42;0.90;;;;;;;12.60;100.00;101121.22;4974654;28;20392;-79
2024/04/07 04:33:23;;;;;;;3.13;1.00;;;;;;;12.55;100.00;101127.97;4975018;28;20471;-80
2024/04/07 04:35:51;;;;;;;2.08;1.10;;;;;;;12.47;100.00;101134.03;4974592;28;20082;-78
2024/04/07 04:38:17;;;;;;;2.63;0.98;;;;;;;12.40;100.00;101130.25;4973469;28;20043;-79
2024/04/07 04:40:56;;;;;;;2.65;0.98;;;;;;;12.30;100.00;101130.25;4974511;28;20376;-78
2024/04/07 04:43:22;;;;;;;2.67;0.90;;;;;;;12.23;100.00;101139.84;4974365;28;20035;-81
2024/04/07 04:46:06;;;;;;;2.50;1.00;;;;;;;12.13;100.00;101143.34;4972943;28;20402;-80
2024/04/07 04:48:33;;;;;;;2.13;1.02;;;;;;;12.09;100.00;101152.63;4974488;28;20038;-80
2024/04/07 04:50:59;;;;;;;2.85;1.15;;;;;;;12.09;100.00;101146.44;4974270;28;20027;-79
2024/04/07 04:53:25;;;;;;;7.43;1.48;;;;;;;12.02;100.00;101164.84;4974359;28;20038;-78
2024/04/07 04:55:51;;;;;;;8.25;1.55;;;;;;;12.00;100.00;101166.78;4974216;28;20388;-80
2024/04/07 04:58:16;;;;;;;3.20;1.13;;;;;;;11.92;100.00;101166.63;4974662;28;20483;-79
2024/04/07 05:00:42;;;;;;;3.17;0.98;;;;;;;11.84;100.00;101178.00;4974008;28;20047;-80
2024/04/07 05:03:07;;;;;;;2.97;1.27;;;;;;;11.77;100.00;101180.34;4974969;28;20035;-80
2024/04/07 05:05:33;;;;;;;2.08;1.00;;;;;;;11.67;100.00;101187.50;4974230;28;20501;-79
2024/04/07 05:07:58;;;;;;;3.75;1.20;;;;;;;11.64;100.00;101190.44;4974172;28;20038;-79
2024/04/07 05:10:23;;;;;;;3.22;1.02;;;;;;;11.64;100.00;101191.28;4973064;28;20035;-82
2024/04/07 05:12:48;;;;;;;4.03;1.13;;;;;;;11.65;100.00;101190.28;4974265;28;20034;-81
2024/04/07 05:15:14;;;;;;;5.28;1.30;;;;;;;11.64;100.00;101193.97;4974349;28;20156;-79
2024/04/07 05:17:39;;;;;;;5.38;1.40;;;;;;;11.65;100.00;101198.28;4974080;28;20534;-80
2024/04/07 05:20:05;;;;;;;15.55;1.58;;;;;;;11.65;100.00;101197.47;4974096;28;20035;-79
2024/04/07 05:22:31;;;;;;;7.68;1.45;;;;;;;11.72;100.00;101205.72;4974318;28;20038;-80
2024/04/07 05:24:57;;;;;;;7.63;1.30;;;;;;;11.85;100.00;101213.47;4973564;28;20042;-79
2024/04/07 05:27:22;;;;;;;6.28;1.52;;;;;;;11.96;100.00;101206.22;4974543;28;20082;-79
2024/04/07 05:29:48;;;;;;;4.55;1.08;;;;;;;11.99;100.00;101207.78;4974200;28;20027;-79
2024/04/07 05:32:14;;;;;;;2.63;1.20;;;;;;;12.01;100.00;101216.47;4976405;28;20113;-80
2024/04/07 05:34:39;;;;;;;6.38;1.40;;;;;;;12.06;100.00;101224.06;4978353;28;20034;-80
2024/04/07 05:37:06;;;;;;;7.68;1.77;;;;;;;12.09;100.00;101207.78;4977958;28;20030;-79
2024/04/07 05:39:32;;;;;;;5.72;1.30;;;;;;;12.14;100.00;101211.72;4977948;28;20093;-81
2024/04/07 05:41:57;;;;;;;6.80;1.75;;;;;;;12.15;100.00;101210.75;4978207;28;20035;-80
2024/04/07 05:44:22;;;;;;;4.30;1.20;;;;;;;12.18;100.00;101209.59;4977602;28;20101;-80
2024/04/07 05:46:47;;;;;;;4.63;1.38;;;;;;;12.17;100.00;101214.09;4977578;28;20035;-80
2024/04/07 05:49:13;;;;;;;3.03;1.30;;;;;;;12.15;100.00;101210.75;4977260;28;20372;-81
2024/04/07 05:51:38;;;;;;;5.50;1.67;;;;;;;12.15;100.00;101221.41;4977455;28;20039;-81
2024/04/07 05:54:03;;;;;;;3.10;1.27;;;;;;;12.21;100.00;101221.81;4977714;28;20035;-81
2024/04/07 05:56:29;;;;;;;5.75;1.50;;;;;;;12.25;100.00;101228.56;4977748;28;20055;-81
2024/04/07 05:58:54;;;;;;;4.32;1.38;;;;;;;12.27;100.00;101235.44;4977483;28;20446;-80
2024/04/07 06:01:19;;;;;;;3.92;1.70;;;;;;;12.27;100.00;101229.25;4976523;28;20125;-80
2024/04/07 06:03:46;;;;;;;2.78;1.10;;;;;;;12.33;100.00;101240.22;4977245;28;20039;-80
2024/04/07 06:06:11;;;;;;;3.15;1.40;;;;;;;12.37;100.00;101246.09;4977291;28;20074;-80
2024/04/07 06:08:37;;;;;;;8.27;1.67;;;;;;;12.33;100.00;101237.56;4977496;28;20035;-80
2024/04/07 06:11:03;;;;;;;4.20;1.10;;;;;;;12.35;100.00;101246.25;4977403;28;20026;-81
2024/04/07 06:13:28;;;;;;;2.58;1.23;;;;;;;12.40;100.00;101248.50;4977570;28;20460;-81
2024/04/07 06:15:53;;;;;;;2.63;1.10;;;;;;;12.40;100.00;101245.81;4977187;28;20118;-80
2024/04/07 06:18:19;;;;;;;2.83;1.17;;;;;;;12.41;100.00;101236.00;4977271;28;20045;-81
2024/04/07 06:20:45;;;;;;;2.78;1.30;;;;;;;12.41;100.00;101247.50;4977463;28;20030;-82
2024/04/07 06:23:10;;;;;;;2.58;1.15;;;;;;;12.40;100.00;101237.81;4976803;28;20039;-81
2024/04/07 06:25:35;;;;;;;2.65;1.08;;;;;;;12.40;100.00;101240.47;4976708;28;20097;-81
2024/04/07 06:28:01;;;;;;;2.03;1.20;;;;;;;12.42;100.00;101243.00;4975632;28;20038;-81
2024/04/07 06:30:26;;;;;;;3.22;1.30;;;;;;;12.49;100.00;101255.66;4976764;28;20503;-81
2024/04/07 06:32:52;;;;;;;2.97;1.20;;;;;;;12.53;100.00;101259.72;4976972;28;20031;-79
2024/04/07 06:35:17;;;;;;;6.05;1.55;;;;;;;12.63;100.00;101257.06;4975194;28;20471;-80
2024/04/07 06:37:42;;;;;;;6.07;1.20;;;;;;;12.72;100.00;101254.50;4975550;28;20117;-79
2024/04/07 06:40:08;;;;;;;5.05;1.33;;;;;;;12.82;100.00;101260.66;4974977;28;20030;-81
2024/04/07 06:42:33;;;;;;;5.00;1.67;;;;;;;12.86;100.00;101265.56;4975546;28;20035;-80
2024/04/07 06:44:59;;;;;;;5.13;1.25;;;;;;;12.94;100.00;101262.19;4975414;28;20035;-81
2024/04/07 06:47:26;;;;;;;4.65;1.20;;;;;;;13.00;100.00;101260.78;4976161;28;20535;-80
2024/04/07 06:49:54;;;;;;;4.88;1.38;;;;;;;13.05;100.00;101262.03;4975633;28;20031;-80
2024/04/07 06:52:20;;;;;;;6.32;1.40;;;;;;;13.07;100.00;101269.91;4975748;28;20031;-81
2024/04/07 06:54:45;;;;;;;7.82;1.60;;;;;;;13.09;100.00;101272.41;4975598;28;20077;-81
2024/04/07 06:57:13;;;;;;;2.28;1.30;;;;;;;13.08;100.00;101266.25;4974557;28;20031;-81
2024/04/07 06:59:38;;;;;;;5.88;1.05;;;;;;;13.14;100.00;101263.00;4974717;28;20039;-83
2024/04/07 07:02:04;;;;;;;6.80;1.45;;;;;;;13.20;100.00;101264.25;4974308;28;20190;-79
2024/04/07 07:04:29;;;;;;;2.75;1.08;;;;;;;13.25;100.00;101278.00;4975632;28;20027;-77
2024/04/07 07:06:55;;;;;;;5.15;1.55;;;;;;;13.31;100.00;101279.25;4975627;28;20042;-77
2024/04/07 07:09:20;;;;;;;6.40;2.20;;;;;;;13.40;100.00;101294.44;4975454;28;20092;-78
2024/04/07 07:11:46;;;;;;;5.13;1.10;;;;;;;13.48;100.00;101285.66;4975181;28;20038;-79
2024/04/07 07:14:11;;;;;;;9.40;1.52;;;;;;;13.54;100.00;101280.59;4974162;28;20487;-77
2024/04/07 07:16:37;;;;;;;3.28;1.35;;;;;;;13.65;100.00;101290.25;4974520;28;20035;-77
2024/04/07 07:19:02;;;;;;;8.32;1.58;;;;;;;13.74;100.00;101292.03;4975163;28;20065;-76
2024/04/07 07:21:27;;;;;;;5.20;1.38;;;;;;;13.82;100.00;101299.28;4975125;28;20035;-77
2024/04/07 07:23:53;;;;;;;3.42;1.15;;;;;;;13.91;100.00;101297.56;4975361;28;20035;-79
2024/04/07 07:26:18;;;;;;;4.95;1.50;;;;;;;13.98;100.00;101297.81;4974657;28;20479;-77
2024/04/07 07:28:44;;;;;;;2.30;1.30;;;;;;;14.05;100.00;101304.25;4975005;28;20117;-77
2024/04/07 07:31:09;;;;;;;2.88;1.40;;;;;;;14.07;100.00;101304.94;4974561;28;20417;-76
2024/04/07 07:33:34;;;;;;;6.00;1.35;;;;;;;14.16;100.00;101311.22;4974870;28;20429;-75
2024/04/07 07:36:00;;;;;;;8.80;1.60;;;;;;;14.26;100.00;101312.84;4973764;28;20093;-77
2024/04/07 07:38:25;;;;;;;3.42;1.27;;;;;;;14.34;100.00;101328.13;4974951;28;20030;-76
2024/04/07 07:40:50;;;;;;;6.85;1.65;;;;;;;14.41;100.00;101320.34;4975187;28;20110;-77
2024/04/07 07:43:16;;;;;;;3.78;1.40;;;;;;;14.42;100.00;101333.56;4974947;28;20138;-78
2024/04/07 07:45:45;;;;;;;4.75;1.48;;;;;;;14.40;100.00;101321.31;4973113;28;20038;-77
2024/04/07 07:48:10;;;;;;;9.18;1.40;;;;;;;14.56;100.00;101331.38;4974970;28;20034;-78
2024/04/07 07:50:39;;;;;;;3.72;1.52;;;;;;;14.72;100.00;101334.22;4974514;28;20082;-78
2024/04/07 07:53:05;;;;;;;4.43;1.40;;;;;;;14.89;100.00;101331.69;4974726;28;20433;-79
2024/04/07 07:55:30;;;;;;;8.88;1.88;;;;;;;14.93;100.00;101341.91;4974469;28;20455;-77
2024/04/07 07:57:55;;;;;;;3.40;1.35;;;;;;;15.10;100.00;101334.84;4973092;28;20117;-78
2024/04/07 08:00:23;;;;;;;6.85;1.23;;;;;;;15.20;100.00;101332.06;4974172;28;20065;-76
2024/04/07 08:02:48;;;;;;;4.25;1.27;;;;;;;15.34;100.00;101333.31;4974240;28;20110;-79
2024/04/07 08:05:13;;;;;;;3.03;1.20;;;;;;;15.48;100.00;101342.59;4974497;28;20051;-76
2024/04/07 08:07:39;;;;;;;8.32;1.90;;;;;;;15.84;100.00;101329.91;4974186;28;20027;-77
2024/04/07 08:10:05;;;;;;;5.60;1.38;;;;;;;16.20;100.00;101336.91;4972818;28;20069;-77
2024/04/07 08:12:31;;;;;;;5.05;1.20;;;;;;;16.33;100.00;101339.09;4974245;28;20034;-77
2024/04/07 08:14:56;;;;;;;7.60;1.58;;;;;;;16.38;100.00;101340.28;4973752;28;20177;-78
2024/04/07 08:17:22;;;;;;;4.05;1.40;;;;;;;16.50;100.00;101343.50;4973993;28;20514;-77
2024/04/07 08:19:47;;;;;;;6.85;1.23;;;;;;;16.78;100.00;101345.03;4974018;28;20035;-76
2024/04/07 08:22:12;;;;;;;5.45;1.35;;;;;;;17.04;100.00;101336.84;4973813;28;20363;-77
2024/04/07 08:24:38;;;;;;;4.15;1.23;;;;;;;17.04;100.00;101336.84;4974454;28;20031;-77
2024/04/07 08:27:03;;;;;;;4.95;1.40;;;;;;;17.05;100.00;101338.53;4973581;28;20042;-78
2024/04/07 08:29:29;;;;;;;5.78;1.30;;;;;;;17.03;100.00;101356.66;4973841;28;20031;-76
2024/04/07 08:31:54;;;;;;;4.28;1.73;;;;;;;16.86;100.00;101350.41;4973694;28;20451;-77
2024/04/07 08:34:20;;;;;;;4.68;1.52;;;;;;;16.65;100.00;101356.28;4973661;28;20381;-78
2024/04/07 08:36:45;;;;;;;4.50;1.48;;;;;;;16.66;100.00;101353.44;4973730;28;20035;-77
2024/04/07 08:39:10;;;;;;;8.57;1.52;;;;;;;16.92;100.00;101373.97;4974027;28;20034;-76
2024/04/07 08:41:36;;;;;;;7.03;1.23;;;;;;;16.86;100.00;101372.75;4973974;28;20126;-77
2024/04/07 08:44:02;;;;;;;11.45;1.38;;;;;;;16.87;100.00;101371.78;4973663;28;20113;-79
2024/04/07 08:46:29;;;;;;;4.63;1.25;;;;;;;16.78;100.00;101371.91;4973846;28;20093;-77
2024/04/07 08:48:56;;;;;;;3.42;1.17;;;;;;;16.96;100.00;101369.94;4974245;28;20039;-79
2024/04/07 08:51:22;;;;;;;4.07;1.33;;;;;;;17.40;100.00;101371.41;4973869;28;20030;-77
2024/04/07 08:53:47;;;;;;;4.13;1.42;;;;;;;18.04;100.00;101375.94;4972485;28;20039;-77
2024/04/07 08:56:13;;;;;;;5.05;1.75;;;;;;;18.65;100.00;101373.41;4973912;28;20138;-77
2024/04/07 08:58:40;;;;;;;6.05;1.33;;;;;;;19.11;100.00;101392.28;4974048;28;20022;-77
2024/04/07 09:01:11;;;;;;;10.07;1.45;;;;;;;18.68;100.00;101375.72;4973659;28;20045;-83
2024/04/07 09:03:37;;;;;;;6.60;1.58;;;;;;;18.89;100.00;101393.13;4974074;28;20027;-78
2024/04/07 09:06:03;;;;;;;3.42;1.20;;;;;;;20.02;100.00;101375.97;4974167;28;20058;-79
2024/04/07 09:08:28;;;;;;;5.72;1.70;;;;;;;20.82;100.00;101375.19;4977458;28;20027;-77
2024/04/07 09:10:53;;;;;;;9.98;1.92;;;;;;;21.35;100.00;101374.78;4977633;28;20030;-77
2024/04/07 09:13:19;;;;;;;7.65;1.98;;;;;;;22.29;100.00;101378.84;4978168;28;20038;-80
2024/04/07 09:15:44;;;;;;;4.03;1.30;;;;;;;21.92;100.00;101381.81;4977698;28;20035;-76
2024/04/07 09:18:13;;;;;;;5.03;1.75;;;;;;;22.37;100.00;101378.69;4977628;28;20550;-75
2024/04/07 09:20:39;;;;;;;4.75;1.52;;;;;;;23.16;100.00;101379.84;4977608;28;20105;-75
2024/04/07 09:23:04;;;;;;;6.13;1.50;;;;;;;23.01;100.00;101382.72;4977527;28;20544;-77
2024/04/07 09:25:31;;;;;;;5.95;1.50;;;;;;;22.13;100.00;101393.56;4977505;28;20034;-76
2024/04/07 09:27:58;;;;;;;4.95;1.40;;;;;;;21.62;100.00;101390.19;4977454;28;20419;-76
2024/04/07 09:30:23;;;;;;;3.58;1.27;;;;;;;20.64;100.00;101398.06;4977163;28;20058;-76
2024/04/07 09:32:49;;;;;;;20.08;2.75;;;;;;;20.70;100.00;101408.16;4977228;28;20494;-76
2024/04/07 09:35:14;;;;;;;9.73;1.48;;;;;;;20.67;100.00;101397.72;4977390;28;20074;-77
2024/04/07 09:37:41;;;;;;;6.80;1.58;;;;;;;20.20;100.00;101412.56;4977536;28;20038;-77
2024/04/07 09:40:07;;;;;;;8.23;1.70;;;;;;;20.70;100.00;101404.63;4977677;28;20201;-77
2024/04/07 09:42:37;;;;;;;8.73;1.88;;;;;;;20.30;100.00;101394.16;4977175;28;20523;-78
2024/04/07 09:45:05;;;;;;;18.98;2.65;;;;;;;20.19;100.00;101402.78;4977276;28;20082;-82
2024/04/07 09:47:34;;;;;;;4.03;1.55;;;;;;;20.93;100.00;101394.44;4977593;28;20554;-77
2024/04/07 09:50:04;;;;;;;5.30;1.45;;;;;;;21.91;100.00;101406.41;4977095;28;20042;-78
2024/04/07 09:52:50;;;;;;;4.57;1.48;;;;;;;22.64;100.00;101395.84;4977570;28;20031;-76
2024/04/07 09:55:16;;;;;;;6.40;1.70;;;;;;;23.28;100.00;101392.78;4977009;28;20043;-76
2024/04/07 09:57:42;;;;;;;8.43;2.17;;;;;;;23.52;100.00;101416.53;4976969;28;20062;-76
2024/04/07 10:00:11;;;;;;;4.18;1.23;;;;;;;23.84;100.00;101402.25;4975507;28;20062;-78
2024/04/07 10:02:38;;;;;;;4.63;1.45;;;;;;;23.84;100.00;101424.84;4977343;28;20035;-79
2024/04/07 10:05:07;;;;;;;2.50;1.30;;;;;;;24.13;100.00;101419.16;4976788;28;20037;-83
2024/04/07 10:07:37;;;;;;;3.20;1.20;;;;;;;24.38;100.00;101408.34;4976754;28;20126;-76
2024/04/07 10:10:04;;;;;;;48.30;5.70;;;;;;;24.74;100.00;101412.38;4977065;28;20055;-76
2024/04/07 10:12:30;;;;;;;7.30;2.00;;;;;;;24.47;100.00;101410.59;4975257;28;20035;-76
2024/04/07 10:14:55;;;;;;;5.82;1.38;;;;;;;24.97;100.00;101406.31;4976752;28;20117;-75
2024/04/07 10:17:22;;;;;;;3.63;1.08;;;;;;;25.66;100.00;101414.50;4974784;28;20042;-77
2024/04/07 10:19:51;;;;;;;3.35;1.02;;;;;;;24.72;100.00;101409.00;4975736;28;20494;-76
2024/04/07 10:22:17;;;;;;;7.25;1.45;;;;;;;25.11;100.00;101407.88;4976889;28;20038;-76
2024/04/07 10:24:47;;;;;;;3.40;1.55;;;;;;;25.17;100.00;101406.16;4976496;28;20035;-78
2024/04/07 10:27:12;;;;;;;5.88;1.30;;;;;;;24.48;100.00;101403.25;4976471;28;20464;-76
2024/04/07 10:29:39;;;;;;;5.38;1.30;;;;;;;24.25;100.00;101417.41;4976146;28;20034;-77
2024/04/07 10:32:15;;;;;;;7.70;1.63;;;;;;;24.52;100.00;101423.53;4976471;28;20075;-74
2024/04/07 10:35:15;;;;;;;3.92;1.40;;;;;;;25.05;100.00;101414.22;4976375;28;20043;-75
2024/04/07 10:37:41;;;;;;;11.87;1.30;;;;;;;24.55;100.00;101414.13;4975135;28;20125;-79
2024/04/07 10:40:09;;;;;;;2.88;1.25;;;;;;;23.82;100.00;101415.25;4976390;28;20114;-77
2024/04/07 10:42:36;;;;;;;3.55;1.13;;;;;;;23.79;100.00;101419.22;4976176;28;20031;-76
2024/04/07 10:45:02;;;;;;;4.95;1.30;;;;;;;24.52;100.00;101409.13;4976085;28;20030;-78
2024/04/07 10:47:29;;;;;;;3.85;1.10;;;;;;;24.71;97.47;101412.81;4975927;28;20042;-77
2024/04/07 10:49:55;;;;;;;4.82;1.55;;;;;;;23.84;100.00;101426.72;4974768;28;20043;-79
2024/04/07 10:52:23;;;;;;;4.20;1.42;;;;;;;23.06;100.00;101431.78;4975614;28;20035;-82
2024/04/07 10:54:48;;;;;;;5.97;1.73;;;;;;;22.64;100.00;101414.81;4975531;28;20027;-79
2024/04/07 10:57:14;;;;;;;4.68;1.25;;;;;;;23.14;100.00;101427.22;4974516;28;20038;-82
2024/04/07 10:59:41;;;;;;;3.00;1.17;;;;;;;24.01;100.00;101429.84;4975482;28;20093;-77
2024/04/07 11:02:08;;;;;;;2.53;1.02;;;;;;;24.55;100.00;101431.25;4975973;28;20098;-77
2024/04/07 11:04:35;;;;;;;3.10;1.20;;;;;;;23.51;100.00;101425.75;4975789;28;20038;-76
2024/04/07 11:07:01;;;;;;;2.25;1.02;;;;;;;22.52;100.00;101425.41;4975438;28;20038;-75
2024/04/07 11:09:27;;;;;;;5.88;1.17;;;;;;;23.07;100.00;101417.16;4975267;28;20042;-77
2024/04/07 11:11:54;;;;;;;5.55;1.20;;;;;;;23.72;100.00;101402.94;4975307;28;20062;-77
2024/04/07 11:14:26;;;;;;;4.22;1.15;;;;;;;24.58;89.35;101413.69;4975127;28;20038;-76